^^
MeteoGriva-Weather Station Historical Data
Daily Summary for February 17, 2020 Units:  Metric    English   Both
Daily Weekly Monthly Yearly Custom
  High: Low: Average:
Temperature: 16.4 °C 9.8 °C 12.2 °C
Dew Point: 14.3 °C 9.7 °C 11.8 °C
Humidity: 99% 87.3% 97%
Wind Speed: 5km/h 0km/h 0.3km/h
Wind Gust: 12.2km/h - -
Wind- - South
Pressure: 1025.7 hPa 1020.7 hPa -
Precipitation: 0.0 mm    
Historical Graphs
 
 
Tabular Data for February 17, 2020
Time Temperature Dew Point Pressure Wind Wind Speed Wind Gust Humidity Rainfall Rate (Hourly) solar
00:04 10.4 °C 10.2 °C 1020.7 hPa SSW 1.3 km/h 7.9 km/h 99% 0.0 mm 0 W/m2
00:09 10.4 °C 10.2 °C 1020.7 hPa South 1.7 km/h 12.2 km/h 99% 0.0 mm 0 W/m2
00:14 10.4 °C 10.2 °C 1020.7 hPa SSW 2.8 km/h 7.9 km/h 99% 0.0 mm 0 W/m2
00:19 10.4 °C 10.2 °C 1020.7 hPa SSW 4.4 km/h 12.2 km/h 99% 0.0 mm 0 W/m2
00:24 10.4 °C 10.2 °C 1020.7 hPa SSW 2.4 km/h 12.2 km/h 99% 0.0 mm 0 W/m2
00:29 10.7 °C 10.5 °C 1020.7 hPa South 4.3 km/h 12.2 km/h 99% 0.0 mm 0 W/m2
00:34 10.9 °C 10.7 °C 1020.7 hPa South 2.4 km/h 12.2 km/h 99% 0.0 mm 0 W/m2
00:39 10.9 °C 10.7 °C 1020.7 hPa South 2.9 km/h 7.9 km/h 99% 0.0 mm 0 W/m2
00:44 10.9 °C 10.7 °C 1020.7 hPa South 1.8 km/h 7.9 km/h 99% 0.0 mm 0 W/m2
00:49 10.9 °C 10.7 °C 1020.7 hPa South 1.9 km/h 7.9 km/h 99% 0.0 mm 0 W/m2
00:54 10.9 °C 10.7 °C 1020.7 hPa South 1.6 km/h 12.2 km/h 99% 0.0 mm 0 W/m2
00:59 10.9 °C 10.7 °C 1020.7 hPa SSW 3 km/h 7.9 km/h 99% 0.0 mm 0 W/m2
01:04 10.9 °C 10.7 °C 1020.7 hPa SSW 2.7 km/h 7.9 km/h 99% 0.0 mm 0 W/m2
01:09 10.9 °C 10.7 °C 1020.7 hPa South 2.8 km/h 7.9 km/h 99% 0.0 mm 0 W/m2
01:14 10.9 °C 10.7 °C 1020.7 hPa South 1.7 km/h 7.9 km/h 99% 0.0 mm 0 W/m2
01:19 10.9 °C 10.7 °C 1020.7 hPa South 0.6 km/h 7.9 km/h 99% 0.0 mm 0 W/m2
01:24 10.9 °C 10.7 °C 1020.7 hPa SSW 0.8 km/h 7.9 km/h 99% 0.0 mm 0 W/m2
01:29 10.8 °C 10.7 °C 1020.7 hPa SSW 0.9 km/h 7.9 km/h 99% 0.0 mm 0 W/m2
01:34 10.8 °C 10.6 °C 1020.7 hPa Calm   7.9 km/h 99% 0.0 mm 0 W/m2
01:39 10.8 °C 10.6 °C 1020.7 hPa SSW 1.7 km/h 7.9 km/h 99% 0.0 mm 0 W/m2
01:44 10.8 °C 10.6 °C 1020.7 hPa South 0.4 km/h 7.9 km/h 99% 0.0 mm 0 W/m2
01:49 10.7 °C 10.5 °C 1020.7 hPa Calm     99% 0.0 mm 0 W/m2
01:54 10.6 °C 10.4 °C 1020.7 hPa Calm     99% 0.0 mm 0 W/m2
01:59 10.6 °C 10.3 °C 1020.7 hPa Calm     99% 0.0 mm 0 W/m2
02:04 10.4 °C 10.2 °C 1020.7 hPa Calm     99% 0.0 mm 0 W/m2
02:09 10.1 °C 10 °C 1021.0 hPa Calm     99% 0.0 mm 0 W/m2
02:14 9.8 °C 9.7 °C 1021.0 hPa Calm     99% 0.0 mm 0 W/m2
02:19 9.8 °C 9.7 °C 1021.0 hPa Calm     99% 0.0 mm 0 W/m2
02:24 9.8 °C 9.7 °C 1020.7 hPa Calm     99% 0.0 mm 0 W/m2
02:29 9.8 °C 9.7 °C 1020.7 hPa Calm     99% 0.0 mm 0 W/m2
02:34 9.9 °C 9.7 °C 1020.7 hPa Calm     99% 0.0 mm 0 W/m2
02:39 9.9 °C 9.7 °C 1020.7 hPa Calm     99% 0.0 mm 0 W/m2
02:44 9.9 °C 9.7 °C 1020.7 hPa Calm     99% 0.0 mm 0 W/m2
02:49 10 °C 9.8 °C 1020.7 hPa Calm     99% 0.0 mm 0 W/m2
02:54 10.1 °C 9.9 °C 1020.7 hPa Calm     99% 0.0 mm 0 W/m2
02:59 10.1 °C 9.9 °C 1020.7 hPa Calm     99% 0.0 mm 0 W/m2
03:04 10.1 °C 9.9 °C 1021.0 hPa Calm     99% 0.0 mm 0 W/m2
03:09 10.3 °C 10 °C 1020.7 hPa Calm     99% 0.0 mm 0 W/m2
03:14 10.3 °C 10.1 °C 1020.7 hPa Calm     99% 0.0 mm 0 W/m2
03:19 10.3 °C 10.1 °C 1020.7 hPa Calm     99% 0.0 mm 0 W/m2
03:24 10.3 °C 10.1 °C 1020.7 hPa Calm     99% 0.0 mm 0 W/m2
03:29 10.3 °C 10.1 °C 1020.7 hPa Calm     99% 0.0 mm 0 W/m2
03:34 10.3 °C 10.1 °C 1020.7 hPa Calm     99% 0.0 mm 0 W/m2
03:39 10.3 °C 10.1 °C 1020.7 hPa Calm     99% 0.0 mm 0 W/m2
03:44 10.3 °C 10.1 °C 1020.7 hPa Calm     99% 0.0 mm 0 W/m2
03:49 10.3 °C 10.1 °C 1020.7 hPa Calm     99% 0.0 mm 0 W/m2
03:54 10.3 °C 10.1 °C 1020.7 hPa Calm     99% 0.0 mm 0 W/m2
03:59 10.3 °C 10.1 °C 1020.7 hPa Calm     99% 0.0 mm 0 W/m2
04:04 10.3 °C 10.1 °C 1020.7 hPa Calm     99% 0.0 mm 0 W/m2
04:09 10.4 °C 10.3 °C 1020.7 hPa Calm     99% 0.0 mm 0 W/m2
04:14 10.5 °C 10.3 °C 1020.7 hPa Calm     99% 0.0 mm 0 W/m2
04:19 10.5 °C 10.3 °C 1020.7 hPa Calm     99% 0.0 mm 0 W/m2
04:24 10.5 °C 10.3 °C 1020.7 hPa Calm     99% 0.0 mm 0 W/m2
04:29 10.5 °C 10.3 °C 1020.7 hPa Calm     99% 0.0 mm 0 W/m2
04:34 10.4 °C 10.2 °C 1020.7 hPa Calm     99% 0.0 mm 0 W/m2
04:39 10.4 °C 10.2 °C 1020.7 hPa Calm     99% 0.0 mm 0 W/m2
04:44 10.4 °C 10.2 °C 1020.7 hPa Calm     99% 0.0 mm 0 W/m2
04:49 10.4 °C 10.2 °C 1021.0 hPa Calm     99% 0.0 mm 0 W/m2
04:54 10.3 °C 10.1 °C 1020.7 hPa Calm     99% 0.0 mm 0 W/m2
04:59 10.3 °C 10.1 °C 1020.7 hPa Calm     99% 0.0 mm 0 W/m2
05:04 10.3 °C 10.1 °C 1020.7 hPa Calm     99% 0.0 mm 0 W/m2
05:09 10.3 °C 10.1 °C 1020.7 hPa Calm     99% 0.0 mm 0 W/m2
05:14 10.4 °C 10.2 °C 1020.7 hPa Calm     99% 0.0 mm 0 W/m2
05:19 10.4 °C 10.2 °C 1020.7 hPa Calm     99% 0.0 mm 0 W/m2
05:24 10.4 °C 10.2 °C 1020.7 hPa Calm     99% 0.0 mm 0 W/m2
05:29 10.4 °C 10.2 °C 1020.7 hPa Calm     99% 0.0 mm 0 W/m2
05:34 10.5 °C 10.3 °C 1020.7 hPa Calm     99% 0.0 mm 0 W/m2
05:39 10.5 °C 10.3 °C 1020.7 hPa Calm     99% 0.0 mm 0 W/m2
05:44 10.5 °C 10.3 °C 1020.7 hPa Calm     99% 0.0 mm 0 W/m2
05:49 10.5 °C 10.3 °C 1020.7 hPa Calm     99% 0.0 mm 0 W/m2
05:54 10.6 °C 10.4 °C 1020.7 hPa Calm     99% 0.0 mm 0 W/m2
05:59 10.6 °C 10.4 °C 1020.7 hPa Calm     99% 0.0 mm 0 W/m2
06:04 10.6 °C 10.4 °C 1020.7 hPa Calm     99% 0.0 mm 0 W/m2
06:09 10.6 °C 10.4 °C 1020.7 hPa Calm     99% 0.0 mm 0 W/m2
06:14 10.7 °C 10.5 °C 1020.7 hPa Calm     99% 0.0 mm 0 W/m2
06:19 10.7 °C 10.5 °C 1020.7 hPa Calm     99% 0.0 mm 0 W/m2
06:24 10.7 °C 10.5 °C 1020.7 hPa Calm     99% 0.0 mm 0 W/m2
06:29 10.7 °C 10.5 °C 1021.0 hPa Calm     99% 0.0 mm 0 W/m2
06:34 10.8 °C 10.6 °C 1021.0 hPa Calm     99% 0.0 mm 0 W/m2
06:39 10.8 °C 10.6 °C 1021.0 hPa Calm     99% 0.0 mm 0 W/m2
06:44 10.8 °C 10.6 °C 1021.0 hPa Calm     99% 0.0 mm 0 W/m2
06:49 10.8 °C 10.6 °C 1020.7 hPa Calm     99% 0.0 mm 0 W/m2
06:54 10.8 °C 10.6 °C 1021.0 hPa Calm     99% 0.0 mm 0 W/m2
06:59 10.8 °C 10.6 °C 1021.0 hPa Calm     99% 0.0 mm 0 W/m2
07:04 10.7 °C 10.5 °C 1021.0 hPa Calm     99% 0.0 mm 0 W/m2
07:09 10.7 °C 10.5 °C 1021.0 hPa Calm     99% 0.0 mm 0 W/m2
07:14 10.9 °C 10.7 °C 1021.0 hPa Calm     99% 0.0 mm 0 W/m2
07:19 10.8 °C 10.7 °C 1021.3 hPa Calm     99% 0.0 mm 0 W/m2
07:24 10.8 °C 10.6 °C 1021.3 hPa Calm     99% 0.0 mm 0 W/m2
07:29 10.8 °C 10.6 °C 1021.3 hPa Calm     99% 0.0 mm 0 W/m2
07:34 11 °C 10.8 °C 1021.3 hPa Calm     99% 0.0 mm 0 W/m2
07:39 11 °C 10.8 °C 1021.3 hPa Calm     99% 0.0 mm 0 W/m2
07:44 11 °C 10.8 °C 1021.3 hPa Calm     99% 0.0 mm 0 W/m2
07:49 11 °C 10.8 °C 1021.7 hPa Calm     99% 0.0 mm 0 W/m2
07:54 11.1 °C 10.9 °C 1021.7 hPa Calm     99% 0.0 mm 3 W/m2
07:59 11.1 °C 10.9 °C 1021.7 hPa Calm     99% 0.0 mm 5 W/m2
08:04 11 °C 10.8 °C 1021.7 hPa Calm     99% 0.0 mm 6 W/m2
08:09 11 °C 10.8 °C 1021.7 hPa Calm     99% 0.0 mm 8 W/m2
08:14 11 °C 10.8 °C 1022.0 hPa Calm     99% 0.0 mm 11 W/m2
08:19 11 °C 10.8 °C 1021.7 hPa Calm     99% 0.0 mm 14 W/m2
08:24 11 °C 10.8 °C 1022.0 hPa Calm     99% 0.0 mm 17 W/m2
08:29 11 °C 10.8 °C 1022.0 hPa Calm     99% 0.0 mm 20 W/m2
08:34 11 °C 10.8 °C 1022.0 hPa Calm     99% 0.0 mm 25 W/m2
08:39 11 °C 10.8 °C 1022.4 hPa Calm     99% 0.0 mm 26 W/m2
08:44 11 °C 10.8 °C 1022.4 hPa Calm     99% 0.0 mm 23 W/m2
08:49 11 °C 10.8 °C 1022.4 hPa Calm     99% 0.0 mm 26 W/m2
08:54 11 °C 10.8 °C 1022.4 hPa Calm     99% 0.0 mm 27 W/m2
08:59 11 °C 10.8 °C 1022.7 hPa Calm     99% 0.0 mm 30 W/m2
09:04 11 °C 10.8 °C 1022.7 hPa Calm     99% 0.0 mm 30 W/m2
09:09 11 °C 10.8 °C 1022.7 hPa Calm     99% 0.0 mm 30 W/m2
09:14 11.2 °C 11 °C 1022.7 hPa Calm     99% 0.0 mm 35 W/m2
09:19 11.3 °C 11.1 °C 1022.7 hPa Calm     99% 0.0 mm 40 W/m2
09:24 11.3 °C 11.1 °C 1022.7 hPa Calm     99% 0.0 mm 41 W/m2
09:29 11.3 °C 11.1 °C 1023.0 hPa Calm     99% 0.0 mm 39 W/m2
09:34 11.6 °C 11.4 °C 1023.0 hPa Calm     99% 0.0 mm 36 W/m2
09:39 11.7 °C 11.5 °C 1023.4 hPa Calm     99% 0.0 mm 41 W/m2
09:44 11.7 °C 11.5 °C 1023.4 hPa Calm     99% 0.0 mm 53 W/m2
09:49 11.7 °C 11.5 °C 1023.0 hPa Calm     99% 0.0 mm 61 W/m2
09:54 11.8 °C 11.6 °C 1023.0 hPa Calm     99% 0.0 mm 68 W/m2
09:59 11.8 °C 11.6 °C 1023.4 hPa Calm     99% 0.0 mm 76 W/m2
10:04 11.9 °C 11.7 °C 1023.0 hPa Calm     99% 0.0 mm 88 W/m2
10:09 11.9 °C 11.7 °C 1023.0 hPa Calm     99% 0.0 mm 93 W/m2
10:14 12.1 °C 11.9 °C 1023.4 hPa Calm     99% 0.0 mm 101 W/m2
10:19 12.3 °C 12.1 °C 1023.4 hPa Calm     99% 0.0 mm 106 W/m2
10:24 12.3 °C 12.1 °C 1023.4 hPa Calm     99% 0.0 mm 112 W/m2
10:29 12.3 °C 12.2 °C 1023.4 hPa Calm     99% 0.0 mm 129 W/m2
10:34 12.7 °C 12.5 °C 1023.4 hPa Calm     98.6% 0.0 mm 143 W/m2
10:39 13.1 °C 12.7 °C 1023.4 hPa Calm     97.7% 0.0 mm 143 W/m2
10:44 13.1 °C 12.6 °C 1023.4 hPa Calm     97% 0.0 mm 161 W/m2
10:49 13.2 °C 12.4 °C 1023.4 hPa Calm     95.2% 0.0 mm 153 W/m2
10:54 13.7 °C 12.9 °C 1023.4 hPa Calm     95.1% 0.0 mm 142 W/m2
10:59 14.1 °C 13.1 °C 1023.4 hPa Calm     93.7% 0.0 mm 155 W/m2
11:04 14.1 °C 13.2 °C 1023.4 hPa Calm     94.8% 0.0 mm 156 W/m2
11:09 14.1 °C 13.2 °C 1023.4 hPa Calm     94.3% 0.0 mm 156 W/m2
11:14 14.2 °C 13.4 °C 1023.4 hPa Calm     94.8% 0.0 mm 155 W/m2
11:19 14.3 °C 13.6 °C 1023.4 hPa SSW 0.4 km/h 4 km/h 95.3% 0.0 mm 161 W/m2
11:24 14.3 °C 13.5 °C 1023.4 hPa SSE 0.5 km/h 7.9 km/h 95% 0.0 mm 160 W/m2
11:29 14.2 °C 13.5 °C 1023.4 hPa SSE 0.4 km/h 7.9 km/h 95.6% 0.0 mm 157 W/m2
11:34 13.9 °C 13.4 °C 1023.4 hPa Calm     96.6% 0.0 mm 164 W/m2
11:39 13.6 °C 13.1 °C 1023.4 hPa Calm     97% 0.0 mm 168 W/m2
11:44 13.7 °C 13 °C 1023.4 hPa Calm     96% 0.0 mm 164 W/m2
11:49 13.8 °C 12.9 °C 1023.4 hPa Calm     94.8% 0.0 mm 141 W/m2
11:54 14.1 °C 13.3 °C 1023.0 hPa Calm     94.8% 0.0 mm 148 W/m2
11:59 14.5 °C 13.5 °C 1023.0 hPa Calm     94.2% 0.0 mm 141 W/m2
12:04 14.5 °C 13.9 °C 1023.0 hPa Calm     96.1% 0.0 mm 142 W/m2
12:09 14.4 °C 13.9 °C 1023.0 hPa SSE 0.8 km/h 12.2 km/h 97% 0.0 mm 261 W/m2
12:14 14.6 °C 13.7 °C 1022.7 hPa South 0.6 km/h 12.2 km/h 94.1% 0.0 mm 254 W/m2
12:19 15 °C 14.2 °C 1023.0 hPa Calm   4 km/h 95% 0.0 mm 135 W/m2
12:24 14.8 °C 14.3 °C 1023.0 hPa Calm   4 km/h 96.7% 0.0 mm 125 W/m2
12:29 14.7 °C 14.1 °C 1023.0 hPa SE 0.3 km/h 7.9 km/h 96% 0.0 mm 124 W/m2
12:34 14.6 °C 13.9 °C 1023.0 hPa Calm   7.9 km/h 95.7% 0.0 mm 130 W/m2
12:39 14.4 °C 13.7 °C 1022.7 hPa SSE 0.3 km/h 4 km/h 95.4% 0.0 mm 121 W/m2
12:44 14.4 °C 13.6 °C 1022.7 hPa ESE 0.7 km/h 7.9 km/h 95.1% 0.0 mm 284 W/m2
12:49 14.5 °C 13.4 °C 1022.7 hPa South 2.1 km/h 12.2 km/h 93.7% 0.0 mm 303 W/m2
12:54 14.6 °C 13.6 °C 1022.7 hPa SSE 1.6 km/h 12.2 km/h 93.8% 0.0 mm 270 W/m2
12:59 14.8 °C 13.8 °C 1022.7 hPa South 1.7 km/h 12.2 km/h 93.6% 0.0 mm 236 W/m2
13:04 14.8 °C 13.8 °C 1022.7 hPa South 0.4 km/h 12.2 km/h 94% 0.0 mm 180 W/m2
13:09 14.8 °C 13.8 °C 1022.4 hPa SSE 0.5 km/h 7.9 km/h 94% 0.0 mm 183 W/m2
13:14 14.8 °C 14 °C 1022.7 hPa SSE 1.7 km/h 7.9 km/h 94.9% 0.0 mm 138 W/m2
13:19 14.7 °C 13.9 °C 1022.4 hPa South 3 km/h 7.9 km/h 95% 0.0 mm 141 W/m2
13:24 14.7 °C 13.9 °C 1022.4 hPa South 4.4 km/h 12.2 km/h 95% 0.0 mm 141 W/m2
13:29 14.7 °C 14 °C 1022.4 hPa SSE 5 km/h 12.2 km/h 95.4% 0.0 mm 263 W/m2
13:34 14.6 °C 13.8 °C 1022.4 hPa SSE 3 km/h 12.2 km/h 95% 0.0 mm 297 W/m2
13:39 14.7 °C 13.7 °C 1022.4 hPa SSE 2.1 km/h 12.2 km/h 93.4% 0.0 mm 289 W/m2
13:44 14.8 °C 13.6 °C 1022.4 hPa SSE 1.4 km/h 12.2 km/h 92.6% 0.0 mm 326 W/m2
13:49 14.9 °C 13.4 °C 1022.4 hPa South 0.5 km/h 12.2 km/h 91% 0.0 mm 316 W/m2
13:54 15.1 °C 13.5 °C 1022.4 hPa SSW 0.9 km/h 7.9 km/h 90.4% 0.0 mm 260 W/m2
13:59 15.5 °C 14.1 °C 1022.4 hPa SSE 3.2 km/h 12.2 km/h 91.2% 0.0 mm 160 W/m2
14:04 15.5 °C 14.1 °C 1022.4 hPa SSE 0.4 km/h 7.9 km/h 91.4% 0.0 mm 265 W/m2
14:09 15.5 °C 14 °C 1022.4 hPa SE 0.2 km/h 7.9 km/h 90.9% 0.0 mm 332 W/m2
14:14 15.6 °C 13.6 °C 1022.4 hPa South 0.6 km/h 7.9 km/h 88.4% 0.0 mm 266 W/m2
14:19 15.7 °C 13.7 °C 1022.4 hPa SE 0.3 km/h 7.9 km/h 87.9% 0.0 mm 310 W/m2
14:23 15.8 °C 13.9 °C 1022.4 hPa SE 1.2 km/h 7.9 km/h 88.7% 0.0 mm 296 W/m2
14:29 15.8 °C 14 °C 1022.4 hPa SSE 0.7 km/h 4 km/h 89% 0.0 mm 281 W/m2
14:34 15.9 °C 13.9 °C 1022.4 hPa Calm     87.7% 0.0 mm 298 W/m2
14:39 16.4 °C 14.3 °C 1022.0 hPa SSE 1.3 km/h 7.9 km/h 87.4% 0.0 mm 257 W/m2
14:44 16.4 °C 14.3 °C 1022.4 hPa South 0.6 km/h 7.9 km/h 87.3% 0.0 mm 223 W/m2
14:49 16.4 °C 14.3 °C 1022.0 hPa SE 1.7 km/h 7.9 km/h 87.9% 0.0 mm 256 W/m2
14:54 16.2 °C 14.3 °C 1022.0 hPa SSE 2.3 km/h 12.2 km/h 88.6% 0.0 mm 249 W/m2
14:59 15.7 °C 14.1 °C 1022.0 hPa SSE 1.4 km/h 7.9 km/h 89.6% 0.0 mm 160 W/m2
15:04 15.7 °C 14.3 °C 1022.0 hPa SSE 2 km/h 12.2 km/h 91.6% 0.0 mm 226 W/m2
15:09 15.6 °C 14.2 °C 1022.0 hPa SSE 0.4 km/h 7.9 km/h 91.3% 0.0 mm 254 W/m2
15:13 15.6 °C 14.1 °C 1022.4 hPa SSE 0.1 km/h 4 km/h 91% 0.0 mm 132 W/m2
15:19 15.3 °C 14 °C 1022.0 hPa SSE 1.2 km/h 12.2 km/h 92% 0.0 mm 99 W/m2
15:24 15.2 °C 13.9 °C 1022.0 hPa SE 1.1 km/h 12.2 km/h 92% 0.0 mm 94 W/m2
15:29 15.2 °C 14 °C 1022.0 hPa SSE 0.7 km/h 7.9 km/h 92.6% 0.0 mm 85 W/m2
15:34 15.2 °C 14.1 °C 1022.0 hPa SSW 0.3 km/h 7.9 km/h 93.2% 0.0 mm 66 W/m2
15:39 14.9 °C 13.9 °C 1022.0 hPa Calm     94% 0.0 mm 73 W/m2
15:44 14.9 °C 13.9 °C 1022.0 hPa Calm     94% 0.0 mm 71 W/m2
15:49 14.8 °C 13.8 °C 1022.4 hPa Calm     94% 0.0 mm 58 W/m2
15:54 14.8 °C 13.9 °C 1022.4 hPa Calm     94.6% 0.0 mm 55 W/m2
15:59 14.5 °C 13.7 °C 1022.4 hPa Calm     95% 0.0 mm 53 W/m2
16:04 14.5 °C 13.8 °C 1022.4 hPa Calm     95.2% 0.0 mm 46 W/m2
16:09 14.5 °C 13.8 °C 1022.4 hPa Calm     95.4% 0.0 mm 46 W/m2
16:14 14.4 °C 13.6 °C 1022.4 hPa SSW 0.3 km/h 4 km/h 94.8% 0.0 mm 49 W/m2
16:19 14.4 °C 13.4 °C 1022.4 hPa Calm   4 km/h 94% 0.0 mm 49 W/m2
16:24 14.3 °C 13.3 °C 1022.4 hPa Calm     94% 0.0 mm 42 W/m2
16:29 14.3 °C 13.5 °C 1022.4 hPa Calm     94.8% 0.0 mm 31 W/m2
16:34 14.3 °C 13.5 °C 1022.4 hPa Calm     95% 0.0 mm 23 W/m2
16:39 13.9 °C 13.3 °C 1022.4 hPa Calm     95.8% 0.0 mm 18 W/m2
16:44 13.9 °C 13.4 °C 1022.7 hPa Calm     96.8% 0.0 mm 12 W/m2
16:49 13.8 °C 13.5 °C 1022.7 hPa Calm   4 km/h 98% 0.0 mm 9 W/m2
16:54 13.7 °C 13.4 °C 1022.4 hPa Calm   4 km/h 98% 0.0 mm 7 W/m2
16:59 13.2 °C 13 °C 1022.7 hPa Calm     98.7% 0.0 mm 5 W/m2
17:04 13.1 °C 12.9 °C 1022.7 hPa Calm     99% 0.0 mm 3 W/m2
17:09 13.1 °C 12.8 °C 1022.7 hPa Calm     99% 0.0 mm 0 W/m2
17:14 12.9 °C 12.7 °C 1023.0 hPa Calm     99% 0.0 mm 0 W/m2
17:19 12.5 °C 12.3 °C 1022.7 hPa Calm     99% 0.0 mm 0 W/m2
17:24 12.4 °C 12.2 °C 1023.0 hPa Calm     99% 0.0 mm 0 W/m2
17:29 12.3 °C 12.2 °C 1023.0 hPa Calm     99% 0.0 mm 0 W/m2
17:34 12.3 °C 12.1 °C 1023.0 hPa Calm     99% 0.0 mm 0 W/m2
17:39 12.1 °C 11.9 °C 1023.0 hPa Calm     99% 0.0 mm 0 W/m2
17:44 12.1 °C 11.9 °C 1023.0 hPa Calm     99% 0.0 mm 0 W/m2
17:49 12 °C 11.8 °C 1023.4 hPa Calm     99% 0.0 mm 0 W/m2
17:54 12 °C 11.8 °C 1023.4 hPa Calm     98.8% 0.0 mm 0 W/m2
17:59 12.2 °C 11.8 °C 1023.4 hPa Calm     97.3% 0.0 mm 0 W/m2
18:04 12.2 °C 11.8 °C 1023.4 hPa Calm     97.2% 0.0 mm 0 W/m2
18:09 12.2 °C 11.8 °C 1023.4 hPa Calm     97.2% 0.0 mm 0 W/m2
18:14 12.3 °C 11.8 °C 1023.4 hPa Calm     97.1% 0.0 mm 0 W/m2
18:19 12.4 °C 11.9 °C 1023.4 hPa Calm     97.3% 0.0 mm 0 W/m2
18:24 12.4 °C 12 °C 1023.4 hPa Calm     97.8% 0.0 mm 0 W/m2
18:29 12.3 °C 12 °C 1023.7 hPa Calm     98% 0.0 mm 0 W/m2
18:34 12.3 °C 11.9 °C 1023.7 hPa Calm     97.4% 0.0 mm 0 W/m2
18:39 12.1 °C 11.7 °C 1023.7 hPa Calm     97.1% 0.0 mm 0 W/m2
18:44 12.1 °C 11.6 °C 1023.7 hPa Calm     97% 0.0 mm 0 W/m2
18:49 12.1 °C 11.8 °C 1023.7 hPa Calm     98% 0.0 mm 0 W/m2
18:54 12.1 °C 11.9 °C 1023.7 hPa Calm     99% 0.0 mm 0 W/m2
18:59 12.2 °C 11.9 °C 1023.7 hPa Calm     98.2% 0.0 mm 0 W/m2
19:04 12.2 °C 11.9 °C 1023.7 hPa Calm     98% 0.0 mm 0 W/m2
19:09 12.2 °C 11.9 °C 1023.7 hPa Calm     97.8% 0.0 mm 0 W/m2
19:14 12.2 °C 11.8 °C 1023.7 hPa Calm     97.2% 0.0 mm 0 W/m2
19:19 12.3 °C 12 °C 1024.0 hPa Calm     97.8% 0.0 mm 0 W/m2
19:24 12.3 °C 12 °C 1023.7 hPa Calm     98% 0.0 mm 0 W/m2
19:29 12.3 °C 12 °C 1023.7 hPa Calm     98% 0.0 mm 0 W/m2
19:34 12.3 °C 12 °C 1024.0 hPa Calm     98% 0.0 mm 0 W/m2
19:39 12.1 °C 11.8 °C 1024.0 hPa Calm     98.7% 0.0 mm 0 W/m2
19:44 11.9 °C 11.7 °C 1024.0 hPa Calm     99% 0.0 mm 0 W/m2
19:49 11.9 °C 11.7 °C 1024.0 hPa Calm     99% 0.0 mm 0 W/m2
19:54 11.9 °C 11.6 °C 1024.0 hPa West 0.1 km/h 4 km/h 98.1% 0.0 mm 0 W/m2
19:59 12.2 °C 11.5 °C 1024.0 hPa Calm   4 km/h 96% 0.0 mm 0 W/m2
20:04 12.4 °C 11.7 °C 1024.0 hPa Calm   4 km/h 95.5% 0.0 mm 0 W/m2
20:09 12.4 °C 11.8 °C 1024.0 hPa Calm   4 km/h 96% 0.0 mm 0 W/m2
20:14 12.4 °C 11.8 °C 1024.0 hPa Calm     96% 0.0 mm 0 W/m2
20:19 12.5 °C 11.8 °C 1024.0 hPa Calm     96% 0.0 mm 0 W/m2
20:24 12.5 °C 11.9 °C 1024.0 hPa Calm     96% 0.0 mm 0 W/m2
20:29 12.5 °C 11.9 °C 1024.0 hPa Calm     96% 0.0 mm 0 W/m2
20:34 12.5 °C 11.9 °C 1024.0 hPa Calm     96% 0.0 mm 0 W/m2
20:39 12.5 °C 12 °C 1024.4 hPa Calm     96.9% 0.0 mm 0 W/m2
20:44 12.4 °C 11.9 °C 1024.4 hPa Calm     97.2% 0.0 mm 0 W/m2
20:49 12.4 °C 11.9 °C 1024.4 hPa Calm     97% 0.0 mm 0 W/m2
20:54 12.4 °C 11.9 °C 1024.4 hPa Calm     97% 0.0 mm 0 W/m2
20:59 12.5 °C 11.9 °C 1024.4 hPa Calm     96.7% 0.0 mm 0 W/m2
21:04 12.5 °C 12 °C 1024.4 hPa Calm     97.2% 0.0 mm 0 W/m2
21:09 12.5 °C 12 °C 1024.4 hPa Calm     97% 0.0 mm 0 W/m2
21:14 12.5 °C 11.9 °C 1024.7 hPa Calm     96.1% 0.0 mm 0 W/m2
21:19 12.5 °C 12 °C 1024.7 hPa Calm     96.3% 0.0 mm 0 W/m2
21:24 12.6 °C 12 °C 1024.7 hPa Calm     96% 0.0 mm 0 W/m2
21:29 12.6 °C 12 °C 1025.1 hPa Calm     96% 0.0 mm 0 W/m2
21:34 12.6 °C 12.1 °C 1025.1 hPa Calm     96.6% 0.0 mm 0 W/m2
21:39 12.6 °C 12.1 °C 1025.1 hPa Calm     96.7% 0.0 mm 0 W/m2
21:44 12.6 °C 12.1 °C 1025.1 hPa Calm     97% 0.0 mm 0 W/m2
21:49 12.6 °C 12.1 °C 1025.1 hPa Calm     97% 0.0 mm 0 W/m2
21:54 12.5 °C 12.1 °C 1025.1 hPa Calm     97.1% 0.0 mm 0 W/m2
21:59 12.4 °C 12 °C 1025.1 hPa Calm     98% 0.0 mm 0 W/m2
22:04 12.1 °C 11.8 °C 1025.1 hPa Calm     98% 0.0 mm 0 W/m2
22:09 12.2 °C 11.8 °C 1025.1 hPa Calm     98% 0.0 mm 0 W/m2
22:14 12.2 °C 11.9 °C 1025.4 hPa Calm     98% 0.0 mm 0 W/m2
22:19 12.2 °C 11.9 °C 1025.1 hPa Calm     98.3% 0.0 mm 0 W/m2
22:24 12.1 °C 11.9 °C 1025.1 hPa Calm     99% 0.0 mm 0 W/m2
22:29 12.1 °C 11.9 °C 1025.1 hPa Calm     99% 0.0 mm 0 W/m2
22:34 12.1 °C 11.9 °C 1025.1 hPa Calm     99% 0.0 mm 0 W/m2
22:39 12 °C 11.7 °C 1025.1 hPa Calm     99% 0.0 mm 0 W/m2
22:44 11.8 °C 11.6 °C 1025.1 hPa Calm     99% 0.0 mm 0 W/m2
22:49 11.8 °C 11.6 °C 1025.1 hPa Calm     99% 0.0 mm 0 W/m2
22:54 11.7 °C 11.5 °C 1025.1 hPa Calm     99% 0.0 mm 0 W/m2
22:59 11.8 °C 11.5 °C 1025.1 hPa Calm     98.3% 0.0 mm 0 W/m2
23:04 11.9 °C 11.6 °C 1025.1 hPa Calm     98.4% 0.0 mm 0 W/m2
23:09 11.8 °C 11.6 °C 1025.1 hPa Calm     99% 0.0 mm 0 W/m2
23:14 11.8 °C 11.6 °C 1025.4 hPa Calm     99% 0.0 mm 0 W/m2
23:19 11.8 °C 11.6 °C 1025.4 hPa Calm     99% 0.0 mm 0 W/m2
23:24 11.8 °C 11.6 °C 1025.4 hPa Calm     99% 0.0 mm 0 W/m2
23:29 11.8 °C 11.6 °C 1025.4 hPa Calm     99% 0.0 mm 0 W/m2
23:34 11.8 °C 11.6 °C 1025.4 hPa Calm     99% 0.0 mm 0 W/m2
23:39 11.7 °C 11.5 °C 1025.4 hPa Calm     99% 0.0 mm 0 W/m2
23:44 11.6 °C 11.4 °C 1025.4 hPa Calm     99% 0.0 mm 0 W/m2
23:49 11.5 °C 11.3 °C 1025.7 hPa Calm     99% 0.0 mm 0 W/m2
23:54 11.5 °C 11.3 °C 1025.7 hPa Calm     99% 0.0 mm 0 W/m2
23:59 11.5 °C 11.3 °C 1025.7 hPa Calm     99% 0.0 mm 0 W/m2
Juneau County Weather
Compliments of Weather Underground - 2 mb